createdAt,value
2023-06-11T00:00:17.952Z,11578.00
2023-06-11T00:01:17.981Z,11560.00
2023-06-11T00:02:18.078Z,11606.00
2023-06-11T00:03:18.123Z,11659.00
2023-06-11T00:04:18.077Z,11672.00
2023-06-11T00:05:18.002Z,11689.00
2023-06-11T00:06:17.990Z,11650.00
2023-06-11T00:07:18.017Z,11604.00
2023-06-11T00:08:17.991Z,11606.00
2023-06-11T00:09:18.032Z,11634.00
2023-06-11T00:10:18.025Z,11662.00
2023-06-11T00:11:18.031Z,11611.00
2023-06-11T00:12:18.041Z,11551.00
2023-06-11T00:13:18.004Z,11624.00
2023-06-11T00:14:18.013Z,11655.00
2023-06-11T00:15:18.039Z,11578.00
2023-06-11T00:16:18.084Z,11579.00
2023-06-11T00:17:18.057Z,11592.00
2023-06-11T00:18:18.108Z,11588.00
2023-06-11T00:19:18.094Z,11551.00
2023-06-11T00:20:18.082Z,11503.00
2023-06-11T00:21:18.114Z,11527.00
2023-06-11T00:22:18.146Z,11523.00
2023-06-11T00:23:18.121Z,11481.00
2023-06-11T00:24:18.427Z,11485.00
2023-06-11T00:25:18.146Z,11519.00
2023-06-11T00:26:18.134Z,11530.00
2023-06-11T00:27:18.130Z,11537.00
2023-06-11T00:28:18.113Z,11588.00
2023-06-11T00:29:18.074Z,11625.00
2023-06-11T00:30:18.060Z,11659.00
2023-06-11T00:31:18.068Z,11634.00
2023-06-11T00:32:18.003Z,11588.00
2023-06-11T00:33:17.992Z,11574.00
2023-06-11T00:34:18.010Z,11591.00
2023-06-11T00:35:18.028Z,11564.00
2023-06-11T00:36:17.972Z,11541.00
2023-06-11T00:37:18.007Z,11504.00
2023-06-11T00:38:20.649Z,11457.00
2023-06-11T00:39:17.999Z,11425.00
2023-06-11T00:40:17.964Z,11414.00
2023-06-11T00:41:17.929Z,11382.00
2023-06-11T00:42:17.877Z,11315.00
2023-06-11T00:43:17.846Z,11288.00
2023-06-11T00:44:17.776Z,11321.00
2023-06-11T00:45:17.749Z,11332.00
2023-06-11T00:46:17.806Z,11279.00
2023-06-11T00:47:17.639Z,11244.00
2023-06-11T00:48:17.602Z,11245.00
2023-06-11T00:49:17.567Z,11277.00
2023-06-11T00:50:17.537Z,11338.00
2023-06-11T00:51:17.448Z,11326.00
2023-06-11T00:52:17.426Z,11364.00
2023-06-11T00:53:17.352Z,11379.00
2023-06-11T00:54:17.336Z,11334.00
2023-06-11T00:55:17.286Z,11301.00
2023-06-11T00:56:17.241Z,11288.00
2023-06-11T00:57:17.187Z,11275.00
2023-06-11T00:58:17.146Z,11303.00
2023-06-11T00:59:17.087Z,11284.00
2023-06-11T01:00:17.037Z,11297.00
2023-06-11T01:01:17.014Z,11282.00
2023-06-11T01:02:16.923Z,11327.00
2023-06-11T01:03:16.864Z,11355.00
2023-06-11T01:04:16.991Z,11355.00
2023-06-11T01:05:16.998Z,11370.00
2023-06-11T01:06:16.731Z,11382.00
2023-06-11T01:07:16.678Z,11459.00
2023-06-11T01:08:16.622Z,11495.00
2023-06-11T01:09:16.555Z,11549.00
2023-06-11T01:10:16.519Z,11582.00
2023-06-11T01:11:16.455Z,11581.00
2023-06-11T01:12:16.409Z,11500.00
2023-06-11T01:13:16.361Z,11445.00
2023-06-11T01:14:16.331Z,11386.00
2023-06-11T01:15:16.264Z,11332.00
2023-06-11T01:16:16.232Z,11368.00
2023-06-11T01:17:17.129Z,11369.00
2023-06-11T01:18:16.167Z,11348.00
2023-06-11T01:19:16.089Z,11324.00
2023-06-11T01:20:16.079Z,11341.00
2023-06-11T01:21:16.007Z,11308.00
2023-06-11T01:22:15.971Z,11262.00
2023-06-11T01:23:15.940Z,11285.00
2023-06-11T01:24:15.956Z,11286.00
2023-06-11T01:25:15.861Z,11290.00
2023-06-11T01:26:15.799Z,11231.00
2023-06-11T01:27:15.761Z,11089.00
2023-06-11T01:28:15.710Z,11094.00
2023-06-11T01:29:15.677Z,11071.00
2023-06-11T01:30:15.667Z,11116.00
2023-06-11T01:31:15.671Z,11153.00
2023-06-11T01:32:15.662Z,11184.00
2023-06-11T01:33:15.613Z,11215.00
2023-06-11T01:34:15.639Z,11260.00
2023-06-11T01:35:15.656Z,11288.00
2023-06-11T01:36:15.683Z,11238.00
2023-06-11T01:37:15.620Z,11169.00
2023-06-11T01:38:15.609Z,11026.00
2023-06-11T01:39:15.625Z,10896.00
2023-06-11T01:40:15.715Z,11070.00
2023-06-11T01:41:15.774Z,11207.00
2023-06-11T01:42:15.614Z,11267.00
2023-06-11T01:43:15.602Z,11247.00
2023-06-11T01:44:15.615Z,11255.00
2023-06-11T01:45:15.636Z,11091.00
2023-06-11T01:46:15.645Z,11003.00
2023-06-11T01:47:15.581Z,10931.00
2023-06-11T01:48:15.577Z,11030.00
2023-06-11T01:49:15.535Z,11025.00
2023-06-11T01:50:15.502Z,10951.00
2023-06-11T01:51:15.494Z,10931.00
2023-06-11T01:52:15.499Z,10979.00
2023-06-11T01:53:15.478Z,11019.00
2023-06-11T01:54:15.496Z,11006.00
2023-06-11T01:55:15.449Z,10936.00
2023-06-11T01:56:15.418Z,10911.00
2023-06-11T01:57:15.381Z,10938.00
2023-06-11T01:58:15.363Z,10912.00
2023-06-11T01:59:15.381Z,10913.00
2023-06-11T02:00:15.402Z,10989.00
2023-06-11T02:01:15.394Z,10994.00
2023-06-11T02:02:15.414Z,11012.00
2023-06-11T02:03:15.424Z,10974.00
2023-06-11T02:04:15.369Z,11033.00
2023-06-11T02:05:15.333Z,11035.00
2023-06-11T02:06:15.356Z,11025.00
2023-06-11T02:07:15.327Z,11044.00
2023-06-11T02:08:15.301Z,11038.00
2023-06-11T02:09:15.302Z,11069.00
2023-06-11T02:10:15.265Z,11095.00
2023-06-11T02:11:15.242Z,11034.00
2023-06-11T02:12:15.212Z,11048.00
2023-06-11T02:13:15.179Z,11095.00
2023-06-11T02:14:15.136Z,11057.00
2023-06-11T02:15:15.223Z,10939.00
2023-06-11T02:16:15.178Z,10868.00
2023-06-11T02:17:15.105Z,10824.00
2023-06-11T02:18:15.136Z,10755.00
2023-06-11T02:19:15.144Z,10792.00
2023-06-11T02:20:15.177Z,10832.00
2023-06-11T02:21:15.175Z,10824.00
2023-06-11T02:22:15.151Z,10866.00
2023-06-11T02:23:15.184Z,10876.00
2023-06-11T02:24:15.282Z,10890.00
2023-06-11T02:25:15.169Z,10955.00
2023-06-11T02:26:15.098Z,11026.00
2023-06-11T02:27:15.050Z,11048.00
2023-06-11T02:28:15.051Z,11037.00
2023-06-11T02:29:15.082Z,11015.00
2023-06-11T02:30:15.040Z,10998.00
2023-06-11T02:31:15.025Z,10987.00
2023-06-11T02:32:15.069Z,10927.00
2023-06-11T02:33:14.998Z,10871.00
2023-06-11T02:34:14.967Z,10829.00
2023-06-11T02:35:14.931Z,10767.00
2023-06-11T02:36:14.899Z,10726.00
2023-06-11T02:37:14.862Z,10729.00
2023-06-11T02:38:14.936Z,10744.00
2023-06-11T02:39:14.897Z,10738.00
2023-06-11T02:40:14.913Z,10697.00
2023-06-11T02:41:14.891Z,10672.00
2023-06-11T02:42:14.878Z,10741.00
2023-06-11T02:43:14.873Z,10780.00
2023-06-11T02:44:14.891Z,10840.00
2023-06-11T02:45:14.906Z,10912.00
2023-06-11T02:46:14.936Z,10866.00
2023-06-11T02:47:14.866Z,10852.00
2023-06-11T02:48:14.871Z,10873.00
2023-06-11T02:49:14.880Z,10910.00
2023-06-11T02:50:14.908Z,10954.00
2023-06-11T02:51:14.877Z,10956.00
2023-06-11T02:52:14.908Z,10964.00
2023-06-11T02:53:14.903Z,10987.00
2023-06-11T02:54:14.877Z,10958.00
2023-06-11T02:55:14.963Z,10902.00
2023-06-11T02:56:14.843Z,10883.00
2023-06-11T02:57:14.827Z,10797.00
2023-06-11T02:58:14.805Z,10477.00
2023-06-11T02:59:14.761Z,10391.00
2023-06-11T03:00:14.724Z,10418.00
2023-06-11T03:01:14.734Z,10246.00
2023-06-11T03:02:14.667Z,10181.00
2023-06-11T03:03:14.650Z,10135.00
2023-06-11T03:04:14.686Z,10039.00
2023-06-11T03:05:14.943Z,10026.00
2023-06-11T03:06:14.613Z,10066.00
2023-06-11T03:07:14.610Z,10247.00
2023-06-11T03:08:14.678Z,10358.00
2023-06-11T03:09:14.649Z,10329.00
2023-06-11T03:10:14.611Z,10349.00
2023-06-11T03:11:14.591Z,10350.00
2023-06-11T03:12:14.573Z,10334.00
2023-06-11T03:13:14.530Z,10315.00
2023-06-11T03:14:14.578Z,10348.00
2023-06-11T03:15:14.743Z,10137.00
2023-06-11T03:16:14.644Z,9900.00
2023-06-11T03:17:14.542Z,9834.00
2023-06-11T03:18:14.505Z,9857.00
2023-06-11T03:19:14.434Z,9894.00
2023-06-11T03:20:14.424Z,9915.00
2023-06-11T03:21:14.363Z,9845.00
2023-06-11T03:22:14.372Z,9440.00
2023-06-11T03:23:14.380Z,9347.00
2023-06-11T03:24:14.455Z,9292.00
2023-06-11T03:25:14.459Z,9287.00
2023-06-11T03:26:14.389Z,9404.00
2023-06-11T03:27:14.354Z,9472.00
2023-06-11T03:28:14.348Z,9412.00
2023-06-11T03:29:14.347Z,9313.00
2023-06-11T03:30:14.337Z,9263.00
2023-06-11T03:31:14.317Z,9212.00
2023-06-11T03:32:14.245Z,9228.00
2023-06-11T03:33:14.226Z,9282.00
2023-06-11T03:34:14.176Z,9375.00
2023-06-11T03:35:14.153Z,9437.00
2023-06-11T03:36:14.156Z,9337.00
2023-06-11T03:37:14.216Z,9189.00
2023-06-11T03:38:14.170Z,9109.00
2023-06-11T03:39:14.188Z,9039.00
2023-06-11T03:40:14.197Z,8898.00
2023-06-11T03:41:14.194Z,8855.00
2023-06-11T03:42:14.236Z,8815.00
2023-06-11T03:43:14.173Z,8814.00
2023-06-11T03:44:14.169Z,8870.00
2023-06-11T03:45:14.200Z,8911.00
2023-06-11T03:46:14.155Z,8912.00
2023-06-11T03:47:14.234Z,8910.00
2023-06-11T03:48:14.198Z,8883.00
2023-06-11T03:49:14.171Z,8874.00
2023-06-11T03:50:14.190Z,8859.00
2023-06-11T03:51:14.209Z,8804.00
2023-06-11T03:52:14.183Z,8703.00
2023-06-11T03:53:14.857Z,8239.00
2023-06-11T03:54:14.881Z,8115.00
2023-06-11T03:55:14.120Z,7860.00
2023-06-11T03:56:14.140Z,7804.00
2023-06-11T03:57:14.109Z,7845.00
2023-06-11T03:58:14.085Z,7926.00
2023-06-11T03:59:14.103Z,7709.00
2023-06-11T04:00:14.094Z,7669.00
2023-06-11T04:01:14.090Z,7742.00
2023-06-11T04:02:14.137Z,7807.00
2023-06-11T04:03:14.180Z,7853.00
2023-06-11T04:04:14.221Z,7946.00
2023-06-11T04:05:14.208Z,7964.00
2023-06-11T04:06:14.191Z,7931.00
2023-06-11T04:07:14.156Z,7916.00
2023-06-11T04:08:14.158Z,7919.00
2023-06-11T04:09:14.076Z,7885.00
2023-06-11T04:10:14.076Z,7914.00
2023-06-11T04:11:14.004Z,8045.00
2023-06-11T04:12:13.969Z,7916.00
2023-06-11T04:13:13.971Z,7911.00
2023-06-11T04:14:13.916Z,8005.00
2023-06-11T04:15:13.885Z,7925.00
2023-06-11T04:16:13.868Z,7828.00
2023-06-11T04:17:13.902Z,7862.00
2023-06-11T04:18:13.916Z,7836.00
2023-06-11T04:19:13.806Z,7885.00
2023-06-11T04:20:13.767Z,7809.00
2023-06-11T04:21:13.716Z,7765.00
2023-06-11T04:22:13.710Z,7754.00
2023-06-11T04:23:13.718Z,7758.00
2023-06-11T04:24:13.665Z,7719.00
2023-06-11T04:25:13.805Z,7598.00
2023-06-11T04:26:13.594Z,7604.00
2023-06-11T04:27:13.605Z,7632.00
2023-06-11T04:28:13.617Z,7613.00
2023-06-11T04:29:13.593Z,7511.00
2023-06-11T04:30:13.611Z,7365.00
2023-06-11T04:31:13.615Z,7455.00
2023-06-11T04:32:13.548Z,7421.00
2023-06-11T04:33:13.573Z,7288.00
2023-06-11T04:34:13.471Z,7206.00
2023-06-11T04:35:15.820Z,7183.00
2023-06-11T04:36:13.357Z,7278.00
2023-06-11T04:37:13.337Z,7269.00
2023-06-11T04:38:13.230Z,7249.00
2023-06-11T04:39:13.162Z,7308.00
2023-06-11T04:40:13.128Z,7365.00
2023-06-11T04:41:13.061Z,7232.00
2023-06-11T04:42:13.042Z,7134.00
2023-06-11T04:43:12.943Z,7163.00
2023-06-11T04:44:12.896Z,7139.00
2023-06-11T04:45:13.075Z,7120.00
2023-06-11T04:46:12.778Z,7244.00
2023-06-11T04:47:12.692Z,7281.00
2023-06-11T04:48:12.640Z,7408.00
2023-06-11T04:49:12.566Z,7341.00
2023-06-11T04:50:12.516Z,7273.00
2023-06-11T04:51:12.460Z,7320.00
2023-06-11T04:52:12.427Z,7391.00
2023-06-11T04:53:12.335Z,7396.00
2023-06-11T04:54:12.258Z,7312.00
2023-06-11T04:55:12.481Z,7228.00
2023-06-11T04:56:12.152Z,7228.00
2023-06-11T04:57:12.108Z,7230.00
2023-06-11T04:58:12.098Z,7094.00
2023-06-11T04:59:11.990Z,7077.00
2023-06-11T05:00:12.392Z,7165.00
2023-06-11T05:01:11.872Z,7232.00
2023-06-11T05:02:11.913Z,7157.00
2023-06-11T05:03:11.847Z,7136.00
2023-06-11T05:04:11.699Z,7133.00
2023-06-11T05:05:11.843Z,7161.00
2023-06-11T05:06:11.604Z,7184.00
2023-06-11T05:07:11.552Z,7094.00
2023-06-11T05:08:11.457Z,7047.00
2023-06-11T05:09:11.425Z,6939.00
2023-06-11T05:10:11.432Z,6870.00
2023-06-11T05:11:11.385Z,6937.00
2023-06-11T05:12:11.298Z,6920.00
2023-06-11T05:13:11.310Z,7026.00
2023-06-11T05:14:11.167Z,6940.00
2023-06-11T05:15:11.472Z,6959.00
2023-06-11T05:16:11.075Z,6978.00
2023-06-11T05:17:11.014Z,6921.00
2023-06-11T05:18:11.007Z,6888.00
2023-06-11T05:19:10.906Z,6820.00
2023-06-11T05:20:10.880Z,6963.00
2023-06-11T05:21:10.844Z,6944.00
2023-06-11T05:22:10.794Z,7040.00
2023-06-11T05:23:10.764Z,7091.00
2023-06-11T05:24:10.754Z,7057.00
2023-06-11T05:25:11.053Z,7156.00
2023-06-11T05:26:10.612Z,7094.00
2023-06-11T05:27:10.576Z,7145.00
2023-06-11T05:28:10.543Z,7151.00
2023-06-11T05:29:10.515Z,7162.00
2023-06-11T05:30:10.907Z,7275.00
2023-06-11T05:31:10.524Z,7178.00
2023-06-11T05:32:10.626Z,7092.00
2023-06-11T05:33:10.600Z,7107.00
2023-06-11T05:34:10.506Z,7235.00
2023-06-11T05:35:10.731Z,7123.00
2023-06-11T05:36:10.446Z,7081.00
2023-06-11T05:37:10.454Z,7131.00
2023-06-11T05:38:10.433Z,7170.00
2023-06-11T05:39:10.414Z,7026.00
2023-06-11T05:40:10.374Z,6949.00
2023-06-11T05:41:10.348Z,6935.00
2023-06-11T05:42:10.259Z,6918.00
2023-06-11T05:43:10.177Z,6911.00
2023-06-11T05:44:10.112Z,6895.00
2023-06-11T05:45:10.524Z,6770.00
2023-06-11T05:46:10.052Z,6719.00
2023-06-11T05:47:10.027Z,6716.00
2023-06-11T05:48:09.964Z,6708.00
2023-06-11T05:49:09.859Z,6747.00
2023-06-11T05:50:09.834Z,6640.00
2023-06-11T05:51:09.756Z,6685.00
2023-06-11T05:52:09.711Z,6682.00
2023-06-11T05:53:09.645Z,6639.00
2023-06-11T05:54:09.624Z,6812.00
2023-06-11T05:55:09.853Z,6728.00
2023-06-11T05:56:09.558Z,6563.00
2023-06-11T05:57:09.569Z,6482.00
2023-06-11T05:58:09.528Z,6554.00
2023-06-11T05:59:09.482Z,6650.00
2023-06-11T06:00:09.463Z,6442.00
2023-06-11T06:01:09.458Z,6426.00
2023-06-11T06:02:09.437Z,6405.00
2023-06-11T06:03:09.528Z,6326.00
2023-06-11T06:04:09.522Z,6021.00
2023-06-11T06:05:09.624Z,5821.00
2023-06-11T06:06:09.431Z,5835.00
2023-06-11T06:07:09.424Z,5350.00
2023-06-11T06:08:09.403Z,5383.00
2023-06-11T06:09:09.400Z,5479.00
2023-06-11T06:10:09.451Z,5329.00
2023-06-11T06:11:09.371Z,5035.00
2023-06-11T06:12:09.320Z,4069.00
2023-06-11T06:13:09.350Z,3654.00
2023-06-11T06:14:09.306Z,3558.00
2023-06-11T06:15:09.538Z,3425.00
2023-06-11T06:16:09.257Z,3385.00
2023-06-11T06:17:09.218Z,3306.00
2023-06-11T06:18:09.254Z,3001.00
2023-06-11T06:19:09.149Z,3005.00
2023-06-11T06:20:09.159Z,2973.00
2023-06-11T06:21:09.109Z,2725.00
2023-06-11T06:22:09.059Z,2519.00
2023-06-11T06:23:09.046Z,2393.00
2023-06-11T06:24:08.999Z,2424.00
2023-06-11T06:25:09.177Z,2605.00
2023-06-11T06:26:08.907Z,2752.00
2023-06-11T06:27:08.875Z,2799.00
2023-06-11T06:28:08.867Z,2820.00
2023-06-11T06:29:08.825Z,3082.00
2023-06-11T06:30:08.796Z,3060.00
2023-06-11T06:31:08.890Z,3190.00
2023-06-11T06:32:08.749Z,2956.00
2023-06-11T06:33:08.845Z,2594.00
2023-06-11T06:34:08.703Z,2458.00
2023-06-11T06:35:09.014Z,2321.00
2023-06-11T06:36:08.658Z,2254.00
2023-06-11T06:37:08.628Z,2073.00
2023-06-11T06:38:08.643Z,2011.00
2023-06-11T06:39:08.563Z,2081.00
2023-06-11T06:40:08.779Z,2014.00
2023-06-11T06:41:08.554Z,2047.00
2023-06-11T06:42:09.420Z,1974.00
2023-06-11T06:43:08.439Z,1962.00
2023-06-11T06:44:08.451Z,1942.00
2023-06-11T06:45:08.540Z,1705.00
2023-06-11T06:46:08.362Z,1661.00
2023-06-11T06:47:08.328Z,1748.00
2023-06-11T06:48:08.388Z,1681.00
2023-06-11T06:49:08.258Z,1485.00
2023-06-11T06:50:08.381Z,1149.00
2023-06-11T06:51:08.138Z,923.00
2023-06-11T06:52:08.084Z,966.00
2023-06-11T06:53:08.036Z,973.00
2023-06-11T06:54:07.952Z,841.00
2023-06-11T06:55:07.880Z,821.00
2023-06-11T06:56:07.836Z,1296.00
2023-06-11T06:57:07.816Z,1387.00
2023-06-11T06:58:07.805Z,1415.00
2023-06-11T06:59:07.632Z,1220.00
2023-06-11T07:00:07.570Z,1145.00
2023-06-11T07:01:07.564Z,1175.00
2023-06-11T07:02:09.735Z,1307.00
2023-06-11T07:03:07.457Z,1408.00
2023-06-11T07:04:07.291Z,1153.00
2023-06-11T07:05:07.186Z,750.00
2023-06-11T07:06:07.210Z,694.00
2023-06-11T07:07:07.008Z,936.00
2023-06-11T07:08:06.933Z,960.00
2023-06-11T07:09:06.840Z,958.00
2023-06-11T07:10:06.770Z,915.00
2023-06-11T07:11:06.682Z,1074.00
2023-06-11T07:12:06.602Z,1161.00
2023-06-11T07:13:06.530Z,1207.00
2023-06-11T07:14:06.440Z,1292.00
2023-06-11T07:15:06.371Z,1190.00
2023-06-11T07:16:06.382Z,1122.00
2023-06-11T07:17:06.162Z,1024.00
2023-06-11T07:18:06.146Z,1219.00
2023-06-11T07:19:05.959Z,1592.00
2023-06-11T07:20:05.947Z,1405.00
2023-06-11T07:21:05.768Z,1494.00
2023-06-11T07:22:05.694Z,1289.00
2023-06-11T07:23:05.599Z,1216.00
2023-06-11T07:24:05.550Z,995.00
2023-06-11T07:25:05.423Z,798.00
2023-06-11T07:26:05.299Z,1077.00
2023-06-11T07:27:05.194Z,1246.00
2023-06-11T07:28:05.129Z,1023.00
2023-06-11T07:29:05.003Z,1177.00
2023-06-11T07:30:04.888Z,1198.00
2023-06-11T07:31:04.832Z,1094.00
2023-06-11T07:32:04.684Z,1034.00
2023-06-11T07:33:04.663Z,1288.00
2023-06-11T07:34:04.489Z,1129.00
2023-06-11T07:35:04.390Z,1031.00
2023-06-11T07:36:04.291Z,1096.00
2023-06-11T07:37:04.170Z,1550.00
2023-06-11T07:38:04.080Z,1640.00
2023-06-11T07:39:03.940Z,1511.00
2023-06-11T07:40:03.925Z,1833.00
2023-06-11T07:41:03.756Z,1698.00
2023-06-11T07:42:03.620Z,1347.00
2023-06-11T07:43:03.550Z,1221.00
2023-06-11T07:44:03.381Z,1210.00
2023-06-11T07:45:03.268Z,1371.00
2023-06-11T07:46:03.169Z,1318.00
2023-06-11T07:47:03.114Z,1442.00
2023-06-11T07:48:02.946Z,1590.00
2023-06-11T07:49:02.766Z,1562.00
2023-06-11T07:50:02.631Z,1508.00
2023-06-11T07:51:02.530Z,1641.00
2023-06-11T07:52:02.405Z,1344.00
2023-06-11T07:53:02.329Z,1315.00
2023-06-11T07:54:02.210Z,1367.00
2023-06-11T07:55:02.107Z,1424.00
2023-06-11T07:56:01.968Z,1879.00
2023-06-11T07:57:01.840Z,1578.00
2023-06-11T07:58:01.795Z,1609.00
2023-06-11T07:59:01.624Z,1860.00
2023-06-11T08:00:01.513Z,1586.00
2023-06-11T08:01:01.460Z,1459.00
2023-06-11T08:02:01.412Z,1445.00
2023-06-11T08:03:01.281Z,1489.00
2023-06-11T08:04:01.083Z,1492.00
2023-06-11T08:05:00.980Z,1468.00
2023-06-11T08:06:00.995Z,1415.00
2023-06-11T08:07:00.775Z,1429.00
2023-06-11T08:08:00.701Z,1587.00
2023-06-11T08:09:00.582Z,1726.00
2023-06-11T08:10:00.492Z,1851.00
2023-06-11T08:11:00.420Z,1865.00
2023-06-11T08:12:00.347Z,2074.00
2023-06-11T08:13:00.302Z,1864.00
2023-06-11T08:14:00.291Z,1726.00
2023-06-11T08:15:00.228Z,1567.00
2023-06-11T08:16:00.189Z,1448.00
2023-06-11T08:17:00.233Z,1714.00
2023-06-11T08:18:00.193Z,1892.00
2023-06-11T08:19:00.079Z,1833.00
2023-06-11T08:19:59.992Z,1717.00
2023-06-11T08:20:59.975Z,1681.00
2023-06-11T08:21:59.922Z,1811.00
2023-06-11T08:22:59.863Z,1834.00
2023-06-11T08:23:59.883Z,1835.00
2023-06-11T08:24:59.807Z,1648.00
2023-06-11T08:25:59.955Z,1546.00
2023-06-11T08:26:59.762Z,1685.00
2023-06-11T08:28:00.458Z,1551.00
2023-06-11T08:28:59.639Z,1586.00
2023-06-11T08:29:59.592Z,1335.00
2023-06-11T08:30:59.567Z,1109.00
2023-06-11T08:31:59.504Z,999.00
2023-06-11T08:32:59.459Z,1098.00
2023-06-11T08:33:59.388Z,1154.00
2023-06-11T08:34:59.301Z,1140.00
2023-06-11T08:35:59.260Z,1209.00
2023-06-11T08:36:59.177Z,1292.00
2023-06-11T08:37:59.098Z,1367.00
2023-06-11T08:38:59.033Z,1117.00
2023-06-11T08:39:59.037Z,1110.00
2023-06-11T08:40:59.009Z,1241.00
2023-06-11T08:41:58.937Z,1675.00
2023-06-11T08:42:58.868Z,1438.00
2023-06-11T08:43:58.789Z,1127.00
2023-06-11T08:44:58.699Z,1074.00
2023-06-11T08:45:58.694Z,951.00
2023-06-11T08:46:58.592Z,808.00
2023-06-11T08:47:58.545Z,824.00
2023-06-11T08:48:58.465Z,1165.00
2023-06-11T08:49:58.371Z,911.00
2023-06-11T08:50:58.295Z,1004.00
2023-06-11T08:51:58.201Z,765.00
2023-06-11T08:52:58.097Z,678.00
2023-06-11T08:53:58.061Z,650.00
2023-06-11T08:54:58.001Z,747.00
2023-06-11T08:55:58.440Z,666.00
2023-06-11T08:56:57.963Z,613.00
2023-06-11T08:57:57.794Z,648.00
2023-06-11T08:58:57.697Z,561.00
2023-06-11T08:59:57.625Z,630.00
2023-06-11T09:00:57.560Z,734.00
2023-06-11T09:01:57.533Z,924.00
2023-06-11T09:02:57.493Z,785.00
2023-06-11T09:03:57.386Z,994.00
2023-06-11T09:04:57.333Z,1301.00
2023-06-11T09:05:57.293Z,1393.00
2023-06-11T09:06:57.261Z,1212.00
2023-06-11T09:07:57.232Z,1541.00
2023-06-11T09:08:57.131Z,1583.00
2023-06-11T09:09:57.073Z,1491.00
2023-06-11T09:10:57.093Z,1525.00
2023-06-11T09:11:56.965Z,1809.00
2023-06-11T09:12:58.029Z,1940.00
2023-06-11T09:13:56.870Z,1870.00
2023-06-11T09:14:56.807Z,2001.00
2023-06-11T09:15:56.863Z,2115.00
2023-06-11T09:16:56.667Z,2139.00
2023-06-11T09:17:56.654Z,2098.00
2023-06-11T09:18:56.571Z,1833.00
2023-06-11T09:19:56.544Z,2073.00
2023-06-11T09:20:56.503Z,2209.00
2023-06-11T09:21:56.498Z,2422.00
2023-06-11T09:22:56.306Z,2427.00
2023-06-11T09:23:56.248Z,2474.00
2023-06-11T09:24:56.111Z,2617.00
2023-06-11T09:25:56.033Z,2437.00
2023-06-11T09:26:55.953Z,2463.00
2023-06-11T09:27:55.851Z,2583.00
2023-06-11T09:28:55.732Z,2532.00
2023-06-11T09:29:55.636Z,2690.00
2023-06-11T09:30:55.540Z,2643.00
2023-06-11T09:31:55.465Z,2993.00
2023-06-11T09:32:55.427Z,2681.00
2023-06-11T09:33:55.209Z,2660.00
2023-06-11T09:34:55.134Z,2597.00
2023-06-11T09:35:55.023Z,2559.00
2023-06-11T09:36:54.894Z,2751.00
2023-06-11T09:37:54.822Z,2764.00
2023-06-11T09:38:54.722Z,2438.00
2023-06-11T09:39:54.632Z,2392.00
2023-06-11T09:40:54.591Z,2213.00
2023-06-11T09:41:54.492Z,2126.00
2023-06-11T09:42:54.424Z,1900.00
2023-06-11T09:43:54.372Z,1524.00
2023-06-11T09:44:54.354Z,1589.00
2023-06-11T09:45:54.226Z,1146.00
2023-06-11T09:46:54.121Z,971.00
2023-06-11T09:47:54.114Z,696.00
2023-06-11T09:48:53.922Z,615.00
2023-06-11T09:49:53.859Z,633.00
2023-06-11T09:50:53.768Z,612.00
2023-06-11T09:51:53.656Z,421.00
2023-06-11T09:52:53.637Z,400.00
2023-06-11T09:53:53.596Z,405.00
2023-06-11T09:54:53.494Z,438.00
2023-06-11T09:56:09.573Z,450.00
2023-06-11T09:56:54.319Z,456.00
2023-06-11T09:57:53.209Z,470.00
2023-06-11T09:58:53.093Z,523.00
2023-06-11T09:59:52.980Z,545.00
2023-06-11T10:00:52.911Z,647.00
2023-06-11T10:01:52.841Z,799.00
2023-06-11T10:02:52.702Z,665.00
2023-06-11T10:03:52.576Z,847.00
2023-06-11T10:04:52.478Z,821.00
2023-06-11T10:05:52.369Z,876.00
2023-06-11T10:06:52.241Z,1100.00
2023-06-11T10:07:52.161Z,1247.00
2023-06-11T10:08:52.039Z,1601.00
2023-06-11T10:09:51.944Z,1810.00
2023-06-11T10:10:51.876Z,1992.00
2023-06-11T10:11:51.808Z,2298.00
2023-06-11T10:12:51.805Z,2291.00
2023-06-11T10:13:51.637Z,2176.00
2023-06-11T10:14:51.601Z,1974.00
2023-06-11T10:15:51.529Z,2118.00
2023-06-11T10:16:51.476Z,2148.00
2023-06-11T10:17:51.365Z,2413.00
2023-06-11T10:18:51.241Z,2307.00
2023-06-11T10:19:51.164Z,2388.00
2023-06-11T10:20:51.183Z,2417.00
2023-06-11T10:21:51.074Z,2189.00
2023-06-11T10:22:51.006Z,1939.00
2023-06-11T10:23:51.002Z,2077.00
2023-06-11T10:24:50.848Z,2120.00
2023-06-11T10:25:50.742Z,1970.00
2023-06-11T10:26:50.680Z,1943.00
2023-06-11T10:27:50.508Z,1743.00
2023-06-11T10:28:50.432Z,1581.00
2023-06-11T10:29:50.375Z,1670.00
2023-06-11T10:30:50.319Z,1479.00
2023-06-11T10:31:50.248Z,1502.00
2023-06-11T10:32:50.363Z,1884.00
2023-06-11T10:33:50.075Z,1547.00
2023-06-11T10:34:50.100Z,1552.00
2023-06-11T10:35:49.890Z,1555.00
2023-06-11T10:36:49.757Z,1398.00
2023-06-11T10:37:49.659Z,1386.00
2023-06-11T10:38:49.613Z,1156.00
2023-06-11T10:39:49.493Z,1586.00
2023-06-11T10:40:49.416Z,1501.00
2023-06-11T10:41:49.318Z,1461.00
2023-06-11T10:42:49.258Z,1323.00
2023-06-11T10:43:49.226Z,1106.00
2023-06-11T10:44:49.085Z,1233.00
2023-06-11T10:45:50.143Z,1530.00
2023-06-11T10:46:48.871Z,1476.00
2023-06-11T10:47:48.775Z,1480.00
2023-06-11T10:48:48.628Z,1562.00
2023-06-11T10:49:48.541Z,1196.00
2023-06-11T10:50:48.451Z,1520.00
2023-06-11T10:51:48.329Z,1424.00
2023-06-11T10:52:48.223Z,1341.00
2023-06-11T10:53:48.163Z,1580.00
2023-06-11T10:54:48.050Z,1473.00
2023-06-11T10:55:47.954Z,1767.00
2023-06-11T10:56:47.880Z,1917.00
2023-06-11T10:57:47.777Z,1797.00
2023-06-11T10:58:47.657Z,1469.00
2023-06-11T10:59:47.564Z,1226.00
2023-06-11T11:00:47.496Z,1375.00
2023-06-11T11:01:47.388Z,1766.00
2023-06-11T11:02:47.370Z,1887.00
2023-06-11T11:03:47.301Z,1693.00
2023-06-11T11:04:47.103Z,1362.00
2023-06-11T11:05:47.057Z,1454.00
2023-06-11T11:06:46.957Z,1665.00
2023-06-11T11:07:46.875Z,1366.00
2023-06-11T11:08:46.779Z,1196.00
2023-06-11T11:09:46.711Z,1251.00
2023-06-11T11:10:46.686Z,1201.00
2023-06-11T11:11:46.734Z,1293.00
2023-06-11T11:12:46.539Z,1129.00
2023-06-11T11:13:46.429Z,1169.00
2023-06-11T11:14:46.346Z,835.00
2023-06-11T11:15:46.270Z,1069.00
2023-06-11T11:16:46.248Z,1345.00
2023-06-11T11:17:46.147Z,1583.00
2023-06-11T11:18:46.016Z,1370.00
2023-06-11T11:19:45.942Z,1536.00
2023-06-11T11:20:45.904Z,1767.00
2023-06-11T11:21:45.804Z,1839.00
2023-06-11T11:22:45.692Z,2064.00
2023-06-11T11:23:45.696Z,2025.00
2023-06-11T11:24:45.509Z,2215.00
2023-06-11T11:25:45.424Z,2449.00
2023-06-11T11:26:45.350Z,2211.00
2023-06-11T11:27:45.279Z,2070.00
2023-06-11T11:28:45.196Z,2429.00
2023-06-11T11:29:45.071Z,2385.00
2023-06-11T11:30:45.009Z,2660.00
2023-06-11T11:31:44.995Z,2779.00
2023-06-11T11:32:44.853Z,2480.00
2023-06-11T11:33:44.753Z,2699.00
2023-06-11T11:34:44.623Z,2850.00
2023-06-11T11:35:44.542Z,3298.00
2023-06-11T11:36:44.427Z,3353.00
2023-06-11T11:37:44.330Z,2963.00
2023-06-11T11:38:44.301Z,2836.00
2023-06-11T11:39:44.200Z,2400.00
2023-06-11T11:40:44.095Z,2506.00
2023-06-11T11:41:43.984Z,1511.00
2023-06-11T11:42:43.870Z,1260.00
2023-06-11T11:43:43.827Z,1317.00
2023-06-11T11:44:43.710Z,1437.00
2023-06-11T11:45:43.604Z,1333.00
2023-06-11T11:46:43.572Z,1403.00
2023-06-11T11:47:43.401Z,1605.00
2023-06-11T11:48:43.252Z,1097.00
2023-06-11T11:49:43.081Z,1799.00
2023-06-11T11:50:42.988Z,1739.00
2023-06-11T11:51:42.842Z,1285.00
2023-06-11T11:52:42.680Z,1030.00
2023-06-11T11:53:42.596Z,902.00
2023-06-11T11:54:42.358Z,737.00
2023-06-11T11:55:56.007Z,992.00
2023-06-11T11:56:43.080Z,995.00
2023-06-11T11:57:41.927Z,1006.00
2023-06-11T11:58:41.788Z,936.00
2023-06-11T11:59:41.615Z,527.00
2023-06-11T12:00:41.467Z,457.00